sensor_id;sensor_type;location;lat;lon;timestamp;P1;durP1;ratioP1;P2;durP2;ratioP2
78581;SDS011;67878;46.242;5.974;2023-06-19T00:00:42;6.32;;;5.78;;
78581;SDS011;67878;46.242;5.974;2023-06-19T00:03:07;5.97;;;5.40;;
78581;SDS011;67878;46.242;5.974;2023-06-19T00:05:33;5.82;;;5.32;;
78581;SDS011;67878;46.242;5.974;2023-06-19T00:07:58;6.28;;;5.75;;
78581;SDS011;67878;46.242;5.974;2023-06-19T00:10:24;5.70;;;5.20;;
78581;SDS011;67878;46.242;5.974;2023-06-19T00:12:49;5.78;;;5.28;;
78581;SDS011;67878;46.242;5.974;2023-06-19T00:15:14;5.85;;;5.35;;
78581;SDS011;67878;46.242;5.974;2023-06-19T00:17:40;6.22;;;5.63;;
78581;SDS011;67878;46.242;5.974;2023-06-19T00:20:06;6.00;;;5.50;;
78581;SDS011;67878;46.242;5.974;2023-06-19T00:22:32;6.00;;;5.50;;
78581;SDS011;67878;46.242;5.974;2023-06-19T00:24:58;7.10;;;5.45;;
78581;SDS011;67878;46.242;5.974;2023-06-19T00:27:23;6.00;;;5.32;;
78581;SDS011;67878;46.242;5.974;2023-06-19T00:32:17;5.53;;;5.03;;
78581;SDS011;67878;46.242;5.974;2023-06-19T00:34:42;5.82;;;5.32;;
78581;SDS011;67878;46.242;5.974;2023-06-19T00:39:38;5.88;;;5.38;;
78581;SDS011;67878;46.242;5.974;2023-06-19T00:42:05;5.60;;;5.05;;
78581;SDS011;67878;46.242;5.974;2023-06-19T00:44:30;5.50;;;5.03;;
78581;SDS011;67878;46.242;5.974;2023-06-19T00:47:00;5.68;;;5.18;;
78581;SDS011;67878;46.242;5.974;2023-06-19T00:49:26;6.00;;;5.50;;
78581;SDS011;67878;46.242;5.974;2023-06-19T00:51:53;5.43;;;4.93;;
78581;SDS011;67878;46.242;5.974;2023-06-19T00:54:19;5.70;;;5.20;;
78581;SDS011;67878;46.242;5.974;2023-06-19T00:56:44;5.28;;;4.80;;
78581;SDS011;67878;46.242;5.974;2023-06-19T00:59:18;5.72;;;5.22;;
78581;SDS011;67878;46.242;5.974;2023-06-19T01:01:44;5.55;;;5.05;;
78581;SDS011;67878;46.242;5.974;2023-06-19T01:04:10;5.47;;;4.97;;
78581;SDS011;67878;46.242;5.974;2023-06-19T01:06:54;5.30;;;4.90;;
78581;SDS011;67878;46.242;5.974;2023-06-19T01:09:22;5.15;;;4.75;;
78581;SDS011;67878;46.242;5.974;2023-06-19T01:11:57;6.60;;;5.38;;
78581;SDS011;67878;46.242;5.974;2023-06-19T01:14:30;5.25;;;4.75;;
78581;SDS011;67878;46.242;5.974;2023-06-19T01:17:01;5.53;;;5.03;;
78581;SDS011;67878;46.242;5.974;2023-06-19T01:19:27;5.63;;;5.13;;
78581;SDS011;67878;46.242;5.974;2023-06-19T01:21:53;5.88;;;5.38;;
78581;SDS011;67878;46.242;5.974;2023-06-19T01:24:18;6.28;;;5.78;;
78581;SDS011;67878;46.242;5.974;2023-06-19T01:26:44;5.20;;;4.55;;
78581;SDS011;67878;46.242;5.974;2023-06-19T01:29:11;5.97;;;5.45;;
78581;SDS011;67878;46.242;5.974;2023-06-19T01:31:42;5.72;;;5.20;;
78581;SDS011;67878;46.242;5.974;2023-06-19T01:34:30;5.43;;;4.97;;
78581;SDS011;67878;46.242;5.974;2023-06-19T01:36:55;5.38;;;4.88;;
78581;SDS011;67878;46.242;5.974;2023-06-19T01:39:22;4.75;;;4.35;;
78581;SDS011;67878;46.242;5.974;2023-06-19T01:41:48;5.35;;;4.85;;
78581;SDS011;67878;46.242;5.974;2023-06-19T01:44:13;5.90;;;5.40;;
78581;SDS011;67878;46.242;5.974;2023-06-19T01:46:39;5.40;;;4.72;;
78581;SDS011;67878;46.242;5.974;2023-06-19T01:49:08;5.15;;;4.70;;
78581;SDS011;67878;46.242;5.974;2023-06-19T01:51:34;5.72;;;5.22;;
78581;SDS011;67878;46.242;5.974;2023-06-19T01:54:00;5.65;;;5.15;;
78581;SDS011;67878;46.242;5.974;2023-06-19T01:56:26;5.50;;;5.00;;
78581;SDS011;67878;46.242;5.974;2023-06-19T01:58:51;5.70;;;5.20;;
78581;SDS011;67878;46.242;5.974;2023-06-19T02:01:17;6.00;;;5.40;;
78581;SDS011;67878;46.242;5.974;2023-06-19T02:03:42;5.72;;;5.22;;
78581;SDS011;67878;46.242;5.974;2023-06-19T02:06:07;5.15;;;4.65;;
78581;SDS011;67878;46.242;5.974;2023-06-19T02:08:33;5.68;;;5.13;;
78581;SDS011;67878;46.242;5.974;2023-06-19T02:10:58;5.35;;;4.85;;
78581;SDS011;67878;46.242;5.974;2023-06-19T02:13:24;5.57;;;5.07;;
78581;SDS011;67878;46.242;5.974;2023-06-19T02:15:49;5.03;;;4.63;;
78581;SDS011;67878;46.242;5.974;2023-06-19T02:18:14;5.30;;;4.80;;
78581;SDS011;67878;46.242;5.974;2023-06-19T02:20:40;5.15;;;4.60;;
78581;SDS011;67878;46.242;5.974;2023-06-19T02:23:05;5.40;;;4.90;;
78581;SDS011;67878;46.242;5.974;2023-06-19T02:25:31;5.47;;;4.97;;
78581;SDS011;67878;46.242;5.974;2023-06-19T02:27:56;5.03;;;4.53;;
78581;SDS011;67878;46.242;5.974;2023-06-19T02:30:22;4.80;;;4.40;;
78581;SDS011;67878;46.242;5.974;2023-06-19T02:32:47;5.18;;;4.72;;
78581;SDS011;67878;46.242;5.974;2023-06-19T02:35:12;5.47;;;5.00;;
78581;SDS011;67878;46.242;5.974;2023-06-19T02:37:40;5.32;;;4.82;;
78581;SDS011;67878;46.242;5.974;2023-06-19T02:40:05;5.47;;;4.97;;
78581;SDS011;67878;46.242;5.974;2023-06-19T02:42:31;5.15;;;4.75;;
78581;SDS011;67878;46.242;5.974;2023-06-19T02:44:57;5.63;;;5.13;;
78581;SDS011;67878;46.242;5.974;2023-06-19T02:47:28;5.13;;;4.72;;
78581;SDS011;67878;46.242;5.974;2023-06-19T02:50:00;5.50;;;5.00;;
78581;SDS011;67878;46.242;5.974;2023-06-19T02:52:26;4.72;;;4.32;;
78581;SDS011;67878;46.242;5.974;2023-06-19T02:54:52;4.85;;;4.38;;
78581;SDS011;67878;46.242;5.974;2023-06-19T02:57:18;5.68;;;5.07;;
78581;SDS011;67878;46.242;5.974;2023-06-19T02:59:43;5.85;;;5.20;;
78581;SDS011;67878;46.242;5.974;2023-06-19T03:02:10;5.40;;;4.90;;
78581;SDS011;67878;46.242;5.974;2023-06-19T03:04:36;5.07;;;4.68;;
78581;SDS011;67878;46.242;5.974;2023-06-19T03:07:02;4.40;;;4.00;;
78581;SDS011;67878;46.242;5.974;2023-06-19T03:09:28;4.75;;;4.35;;
78581;SDS011;67878;46.242;5.974;2023-06-19T03:11:53;5.63;;;5.13;;
78581;SDS011;67878;46.242;5.974;2023-06-19T03:14:19;4.95;;;4.53;;
78581;SDS011;67878;46.242;5.974;2023-06-19T03:16:45;5.70;;;5.20;;
78581;SDS011;67878;46.242;5.974;2023-06-19T03:19:10;5.05;;;4.65;;
78581;SDS011;67878;46.242;5.974;2023-06-19T03:21:35;4.82;;;4.43;;
78581;SDS011;67878;46.242;5.974;2023-06-19T03:24:01;5.35;;;4.95;;
78581;SDS011;67878;46.242;5.974;2023-06-19T03:26:26;5.60;;;5.10;;
78581;SDS011;67878;46.242;5.974;2023-06-19T03:28:52;5.50;;;5.00;;
78581;SDS011;67878;46.242;5.974;2023-06-19T03:31:17;5.30;;;4.80;;
78581;SDS011;67878;46.242;5.974;2023-06-19T03:33:43;4.95;;;4.55;;
78581;SDS011;67878;46.242;5.974;2023-06-19T03:36:10;4.93;;;4.43;;
78581;SDS011;67878;46.242;5.974;2023-06-19T03:38:39;6.03;;;5.47;;
78581;SDS011;67878;46.242;5.974;2023-06-19T03:41:07;4.65;;;4.25;;
78581;SDS011;67878;46.242;5.974;2023-06-19T03:43:33;5.40;;;4.90;;
78581;SDS011;67878;46.242;5.974;2023-06-19T03:45:58;5.28;;;4.78;;
78581;SDS011;67878;46.242;5.974;2023-06-19T03:48:25;5.28;;;4.78;;
78581;SDS011;67878;46.242;5.974;2023-06-19T03:50:53;5.25;;;4.75;;
78581;SDS011;67878;46.242;5.974;2023-06-19T03:53:18;4.97;;;4.53;;
78581;SDS011;67878;46.242;5.974;2023-06-19T03:55:43;4.65;;;4.25;;
78581;SDS011;67878;46.242;5.974;2023-06-19T03:58:09;5.20;;;4.80;;
78581;SDS011;67878;46.242;5.974;2023-06-19T04:00:34;5.03;;;4.63;;
78581;SDS011;67878;46.242;5.974;2023-06-19T04:03:00;5.63;;;5.13;;
78581;SDS011;67878;46.242;5.974;2023-06-19T04:05:25;4.80;;;4.40;;
78581;SDS011;67878;46.242;5.974;2023-06-19T04:07:51;4.63;;;4.22;;
78581;SDS011;67878;46.242;5.974;2023-06-19T04:10:16;5.93;;;5.43;;
78581;SDS011;67878;46.242;5.974;2023-06-19T04:12:42;4.78;;;4.38;;
78581;SDS011;67878;46.242;5.974;2023-06-19T04:15:07;5.38;;;4.88;;
78581;SDS011;67878;46.242;5.974;2023-06-19T04:17:33;4.90;;;4.45;;
78581;SDS011;67878;46.242;5.974;2023-06-19T04:19:59;5.25;;;4.75;;
78581;SDS011;67878;46.242;5.974;2023-06-19T04:22:24;5.28;;;4.78;;
78581;SDS011;67878;46.242;5.974;2023-06-19T04:24:50;5.00;;;4.60;;
78581;SDS011;67878;46.242;5.974;2023-06-19T04:27:15;5.15;;;4.65;;
78581;SDS011;67878;46.242;5.974;2023-06-19T04:29:40;5.55;;;5.05;;
78581;SDS011;67878;46.242;5.974;2023-06-19T04:32:06;5.22;;;4.75;;
78581;SDS011;67878;46.242;5.974;2023-06-19T04:34:40;4.78;;;4.38;;
78581;SDS011;67878;46.242;5.974;2023-06-19T04:37:11;5.05;;;4.55;;
78581;SDS011;67878;46.242;5.974;2023-06-19T04:39:38;5.30;;;4.90;;
78581;SDS011;67878;46.242;5.974;2023-06-19T04:42:06;5.10;;;3.80;;
78581;SDS011;67878;46.242;5.974;2023-06-19T04:44:32;5.00;;;4.60;;
78581;SDS011;67878;46.242;5.974;2023-06-19T04:46:59;4.93;;;4.53;;
78581;SDS011;67878;46.242;5.974;2023-06-19T04:49:26;4.78;;;4.30;;
78581;SDS011;67878;46.242;5.974;2023-06-19T04:51:55;5.57;;;5.07;;
78581;SDS011;67878;46.242;5.974;2023-06-19T04:54:23;5.47;;;4.97;;
78581;SDS011;67878;46.242;5.974;2023-06-19T04:56:51;4.85;;;4.45;;
78581;SDS011;67878;46.242;5.974;2023-06-19T04:59:18;4.70;;;4.30;;
78581;SDS011;67878;46.242;5.974;2023-06-19T05:01:44;5.30;;;4.90;;
78581;SDS011;67878;46.242;5.974;2023-06-19T05:04:09;4.97;;;4.55;;
78581;SDS011;67878;46.242;5.974;2023-06-19T05:06:36;4.68;;;4.30;;
78581;SDS011;67878;46.242;5.974;2023-06-19T05:09:02;5.45;;;4.72;;
78581;SDS011;67878;46.242;5.974;2023-06-19T05:11:27;4.85;;;4.45;;
78581;SDS011;67878;46.242;5.974;2023-06-19T05:13:53;5.28;;;4.78;;
78581;SDS011;67878;46.242;5.974;2023-06-19T05:16:18;5.38;;;4.93;;
78581;SDS011;67878;46.242;5.974;2023-06-19T05:18:45;4.60;;;4.20;;
78581;SDS011;67878;46.242;5.974;2023-06-19T05:21:10;4.82;;;4.43;;
78581;SDS011;67878;46.242;5.974;2023-06-19T05:23:37;4.57;;;4.00;;
78581;SDS011;67878;46.242;5.974;2023-06-19T05:26:05;4.47;;;4.07;;
78581;SDS011;67878;46.242;5.974;2023-06-19T05:28:31;4.93;;;4.53;;
78581;SDS011;67878;46.242;5.974;2023-06-19T05:30:57;5.15;;;4.45;;
78581;SDS011;67878;46.242;5.974;2023-06-19T05:33:23;4.70;;;4.30;;
78581;SDS011;67878;46.242;5.974;2023-06-19T05:35:51;5.35;;;4.68;;
78581;SDS011;67878;46.242;5.974;2023-06-19T05:38:18;5.00;;;4.53;;
78581;SDS011;67878;46.242;5.974;2023-06-19T05:40:44;4.57;;;4.13;;
78581;SDS011;67878;46.242;5.974;2023-06-19T05:43:10;5.05;;;4.55;;
78581;SDS011;67878;46.242;5.974;2023-06-19T05:45:35;5.18;;;4.57;;
78581;SDS011;67878;46.242;5.974;2023-06-19T05:48:01;6.60;;;4.20;;
78581;SDS011;67878;46.242;5.974;2023-06-19T05:50:26;4.85;;;4.45;;
78581;SDS011;67878;46.242;5.974;2023-06-19T05:52:51;5.07;;;4.57;;
78581;SDS011;67878;46.242;5.974;2023-06-19T05:55:17;5.20;;;4.70;;
78581;SDS011;67878;46.242;5.974;2023-06-19T05:57:42;5.53;;;4.57;;
78581;SDS011;67878;46.242;5.974;2023-06-19T06:00:08;5.72;;;4.75;;
78581;SDS011;67878;46.242;5.974;2023-06-19T06:02:40;4.85;;;4.45;;
78581;SDS011;67878;46.242;5.974;2023-06-19T06:05:07;5.30;;;4.85;;
78581;SDS011;67878;46.242;5.974;2023-06-19T06:07:36;5.28;;;4.50;;
78581;SDS011;67878;46.242;5.974;2023-06-19T06:10:01;5.25;;;4.25;;
78581;SDS011;67878;46.242;5.974;2023-06-19T06:12:27;5.93;;;4.55;;
78581;SDS011;67878;46.242;5.974;2023-06-19T06:14:52;6.13;;;4.82;;
78581;SDS011;67878;46.242;5.974;2023-06-19T06:17:17;4.88;;;4.38;;
78581;SDS011;67878;46.242;5.974;2023-06-19T06:19:43;6.30;;;4.68;;
78581;SDS011;67878;46.242;5.974;2023-06-19T06:22:08;9.13;;;5.03;;
78581;SDS011;67878;46.242;5.974;2023-06-19T06:24:34;7.70;;;5.38;;
78581;SDS011;67878;46.242;5.974;2023-06-19T06:26:59;7.70;;;5.53;;
78581;SDS011;67878;46.242;5.974;2023-06-19T06:29:24;6.63;;;5.32;;
78581;SDS011;67878;46.242;5.974;2023-06-19T06:31:50;10.73;;;6.00;;
78581;SDS011;67878;46.242;5.974;2023-06-19T06:34:18;10.93;;;5.93;;
78581;SDS011;67878;46.242;5.974;2023-06-19T06:36:44;21.08;;;5.75;;
78581;SDS011;67878;46.242;5.974;2023-06-19T06:39:10;9.55;;;5.68;;
78581;SDS011;67878;46.242;5.974;2023-06-19T06:41:36;8.38;;;5.50;;
78581;SDS011;67878;46.242;5.974;2023-06-19T06:44:01;11.50;;;5.68;;
78581;SDS011;67878;46.242;5.974;2023-06-19T06:46:27;7.57;;;5.00;;
78581;SDS011;67878;46.242;5.974;2023-06-19T06:48:52;6.85;;;5.00;;
78581;SDS011;67878;46.242;5.974;2023-06-19T06:51:18;6.22;;;5.63;;
78581;SDS011;67878;46.242;5.974;2023-06-19T06:53:43;8.93;;;5.35;;
78581;SDS011;67878;46.242;5.974;2023-06-19T06:56:09;9.30;;;5.57;;
78581;SDS011;67878;46.242;5.974;2023-06-19T06:58:34;9.57;;;5.30;;
78581;SDS011;67878;46.242;5.974;2023-06-19T07:00:59;11.55;;;5.20;;
78581;SDS011;67878;46.242;5.974;2023-06-19T07:03:25;9.07;;;5.30;;
78581;SDS011;67878;46.242;5.974;2023-06-19T07:05:50;7.20;;;5.30;;
78581;SDS011;67878;46.242;5.974;2023-06-19T07:08:15;7.82;;;5.57;;
78581;SDS011;67878;46.242;5.974;2023-06-19T07:10:41;5.93;;;5.15;;
78581;SDS011;67878;46.242;5.974;2023-06-19T07:13:06;7.68;;;5.10;;
78581;SDS011;67878;46.242;5.974;2023-06-19T07:15:32;6.47;;;5.10;;
78581;SDS011;67878;46.242;5.974;2023-06-19T07:17:57;8.95;;;5.07;;
78581;SDS011;67878;46.242;5.974;2023-06-19T07:20:23;10.02;;;5.22;;
78581;SDS011;67878;46.242;5.974;2023-06-19T07:22:50;8.23;;;5.18;;
78581;SDS011;67878;46.242;5.974;2023-06-19T07:25:15;8.13;;;5.55;;
78581;SDS011;67878;46.242;5.974;2023-06-19T07:27:41;5.97;;;5.32;;
78581;SDS011;67878;46.242;5.974;2023-06-19T07:30:07;7.22;;;5.10;;
78581;SDS011;67878;46.242;5.974;2023-06-19T07:32:32;5.45;;;4.80;;
78581;SDS011;67878;46.242;5.974;2023-06-19T07:34:58;5.70;;;4.45;;
78581;SDS011;67878;46.242;5.974;2023-06-19T07:37:23;5.13;;;4.32;;
78581;SDS011;67878;46.242;5.974;2023-06-19T07:39:49;5.43;;;4.80;;
78581;SDS011;67878;46.242;5.974;2023-06-19T07:42:16;7.65;;;5.07;;
78581;SDS011;67878;46.242;5.974;2023-06-19T07:44:42;7.63;;;4.95;;
78581;SDS011;67878;46.242;5.974;2023-06-19T07:47:08;6.03;;;4.30;;
78581;SDS011;67878;46.242;5.974;2023-06-19T07:49:34;7.20;;;4.70;;
78581;SDS011;67878;46.242;5.974;2023-06-19T07:52:00;9.77;;;4.90;;
78581;SDS011;67878;46.242;5.974;2023-06-19T07:54:25;6.30;;;4.75;;
78581;SDS011;67878;46.242;5.974;2023-06-19T07:56:51;7.15;;;4.78;;
78581;SDS011;67878;46.242;5.974;2023-06-19T07:59:16;6.65;;;4.78;;
78581;SDS011;67878;46.242;5.974;2023-06-19T08:01:42;5.32;;;4.82;;
78581;SDS011;67878;46.242;5.974;2023-06-19T08:04:08;5.25;;;4.75;;
78581;SDS011;67878;46.242;5.974;2023-06-19T08:06:33;5.30;;;4.65;;
78581;SDS011;67878;46.242;5.974;2023-06-19T08:08:59;5.57;;;5.07;;
78581;SDS011;67878;46.242;5.974;2023-06-19T08:11:25;6.43;;;4.82;;
78581;SDS011;67878;46.242;5.974;2023-06-19T08:13:53;7.95;;;5.30;;
78581;SDS011;67878;46.242;5.974;2023-06-19T08:16:19;7.47;;;5.20;;
78581;SDS011;67878;46.242;5.974;2023-06-19T08:18:46;7.20;;;4.93;;
78581;SDS011;67878;46.242;5.974;2023-06-19T08:21:12;6.53;;;5.13;;
78581;SDS011;67878;46.242;5.974;2023-06-19T08:23:38;8.23;;;4.80;;
78581;SDS011;67878;46.242;5.974;2023-06-19T08:26:04;6.97;;;5.40;;
78581;SDS011;67878;46.242;5.974;2023-06-19T08:28:31;7.20;;;5.22;;
78581;SDS011;67878;46.242;5.974;2023-06-19T08:30:57;5.88;;;4.75;;
78581;SDS011;67878;46.242;5.974;2023-06-19T08:33:22;5.90;;;4.93;;
78581;SDS011;67878;46.242;5.974;2023-06-19T08:35:47;5.43;;;4.88;;
78581;SDS011;67878;46.242;5.974;2023-06-19T08:38:13;6.82;;;4.68;;
78581;SDS011;67878;46.242;5.974;2023-06-19T08:40:38;6.50;;;4.80;;
78581;SDS011;67878;46.242;5.974;2023-06-19T08:43:05;6.18;;;5.22;;
78581;SDS011;67878;46.242;5.974;2023-06-19T08:45:31;5.80;;;5.07;;
78581;SDS011;67878;46.242;5.974;2023-06-19T08:48:00;6.53;;;5.35;;
78581;SDS011;67878;46.242;5.974;2023-06-19T08:50:27;5.75;;;5.13;;
78581;SDS011;67878;46.242;5.974;2023-06-19T08:52:52;5.90;;;4.82;;
78581;SDS011;67878;46.242;5.974;2023-06-19T08:55:19;5.22;;;4.72;;
78581;SDS011;67878;46.242;5.974;2023-06-19T08:57:45;5.43;;;4.93;;
78581;SDS011;67878;46.242;5.974;2023-06-19T09:02:47;5.72;;;5.22;;
78581;SDS011;67878;46.242;5.974;2023-06-19T09:05:13;5.07;;;4.57;;
78581;SDS011;67878;46.242;5.974;2023-06-19T09:07:43;6.05;;;4.95;;
78581;SDS011;67878;46.242;5.974;2023-06-19T09:10:15;5.38;;;4.57;;
78581;SDS011;67878;46.242;5.974;2023-06-19T09:12:43;5.28;;;4.78;;
78581;SDS011;67878;46.242;5.974;2023-06-19T09:15:13;5.68;;;5.03;;
78581;SDS011;67878;46.242;5.974;2023-06-19T09:17:39;5.20;;;4.70;;
78581;SDS011;67878;46.242;5.974;2023-06-19T09:20:05;5.13;;;4.72;;
78581;SDS011;67878;46.242;5.974;2023-06-19T09:22:31;5.30;;;4.80;;
78581;SDS011;67878;46.242;5.974;2023-06-19T09:25:01;5.35;;;4.65;;
78581;SDS011;67878;46.242;5.974;2023-06-19T09:27:31;5.60;;;4.80;;
78581;SDS011;67878;46.242;5.974;2023-06-19T09:29:57;6.07;;;4.95;;
78581;SDS011;67878;46.242;5.974;2023-06-19T09:32:25;7.60;;;5.28;;
78581;SDS011;67878;46.242;5.974;2023-06-19T09:34:54;5.53;;;5.03;;
78581;SDS011;67878;46.242;5.974;2023-06-19T09:37:24;5.47;;;4.40;;
78581;SDS011;67878;46.242;5.974;2023-06-19T09:39:55;5.28;;;4.78;;
78581;SDS011;67878;46.242;5.974;2023-06-19T09:45:02;6.43;;;5.13;;
78581;SDS011;67878;46.242;5.974;2023-06-19T09:47:35;6.97;;;5.13;;
78581;SDS011;67878;46.242;5.974;2023-06-19T09:50:01;5.30;;;4.90;;
78581;SDS011;67878;46.242;5.974;2023-06-19T09:52:27;5.55;;;4.97;;
78581;SDS011;67878;46.242;5.974;2023-06-19T09:54:53;5.55;;;4.93;;
78581;SDS011;67878;46.242;5.974;2023-06-19T09:57:20;6.05;;;4.90;;
78581;SDS011;67878;46.242;5.974;2023-06-19T09:59:51;5.07;;;4.43;;
78581;SDS011;67878;46.242;5.974;2023-06-19T10:02:19;6.93;;;5.30;;
78581;SDS011;67878;46.242;5.974;2023-06-19T10:04:49;5.18;;;4.68;;
78581;SDS011;67878;46.242;5.974;2023-06-19T10:07:20;5.32;;;4.68;;
78581;SDS011;67878;46.242;5.974;2023-06-19T10:09:57;4.53;;;4.13;;
78581;SDS011;67878;46.242;5.974;2023-06-19T10:12:33;5.38;;;4.47;;
78581;SDS011;67878;46.242;5.974;2023-06-19T10:15:09;5.32;;;4.55;;
78581;SDS011;67878;46.242;5.974;2023-06-19T10:17:34;5.30;;;4.80;;
78581;SDS011;67878;46.242;5.974;2023-06-19T10:20:00;5.40;;;4.90;;
78581;SDS011;67878;46.242;5.974;2023-06-19T10:22:29;5.95;;;4.75;;
78581;SDS011;67878;46.242;5.974;2023-06-19T10:24:55;4.95;;;4.45;;
78581;SDS011;67878;46.242;5.974;2023-06-19T10:27:21;5.50;;;4.70;;
78581;SDS011;67878;46.242;5.974;2023-06-19T10:29:51;5.88;;;5.28;;
78581;SDS011;67878;46.242;5.974;2023-06-19T10:32:18;4.78;;;4.25;;
78581;SDS011;67878;46.242;5.974;2023-06-19T10:34:47;5.13;;;4.63;;
78581;SDS011;67878;46.242;5.974;2023-06-19T10:37:14;7.32;;;4.72;;
78581;SDS011;67878;46.242;5.974;2023-06-19T10:39:40;5.20;;;4.70;;
78581;SDS011;67878;46.242;5.974;2023-06-19T10:42:06;6.32;;;4.78;;
78581;SDS011;67878;46.242;5.974;2023-06-19T10:44:33;5.75;;;5.10;;
78581;SDS011;67878;46.242;5.974;2023-06-19T10:46:58;5.18;;;4.68;;
78581;SDS011;67878;46.242;5.974;2023-06-19T10:49:23;5.93;;;5.28;;
78581;SDS011;67878;46.242;5.974;2023-06-19T10:51:50;6.20;;;4.63;;
78581;SDS011;67878;46.242;5.974;2023-06-19T10:54:18;5.63;;;4.55;;
78581;SDS011;67878;46.242;5.974;2023-06-19T10:56:44;5.50;;;5.00;;
78581;SDS011;67878;46.242;5.974;2023-06-19T10:59:09;6.25;;;4.65;;
78581;SDS011;67878;46.242;5.974;2023-06-19T11:01:39;5.25;;;4.70;;
78581;SDS011;67878;46.242;5.974;2023-06-19T11:04:10;6.20;;;5.03;;
78581;SDS011;67878;46.242;5.974;2023-06-19T11:06:37;5.03;;;4.55;;
78581;SDS011;67878;46.242;5.974;2023-06-19T11:09:04;5.70;;;4.80;;
78581;SDS011;67878;46.242;5.974;2023-06-19T11:11:40;5.10;;;4.18;;
78581;SDS011;67878;46.242;5.974;2023-06-19T11:14:09;5.07;;;4.40;;
78581;SDS011;67878;46.242;5.974;2023-06-19T11:19:03;5.43;;;4.47;;
78581;SDS011;67878;46.242;5.974;2023-06-19T11:21:31;5.55;;;4.40;;
78581;SDS011;67878;46.242;5.974;2023-06-19T11:24:03;5.78;;;4.97;;
78581;SDS011;67878;46.242;5.974;2023-06-19T11:26:34;5.30;;;4.28;;
78581;SDS011;67878;46.242;5.974;2023-06-19T11:29:14;5.35;;;4.55;;
78581;SDS011;67878;46.242;5.974;2023-06-19T11:31:45;5.00;;;4.50;;
78581;SDS011;67878;46.242;5.974;2023-06-19T11:34:14;5.15;;;4.05;;
78581;SDS011;67878;46.242;5.974;2023-06-19T11:36:41;4.78;;;3.90;;
78581;SDS011;67878;46.242;5.974;2023-06-19T11:39:14;4.70;;;4.13;;
78581;SDS011;67878;46.242;5.974;2023-06-19T11:41:40;4.20;;;3.80;;
78581;SDS011;67878;46.242;5.974;2023-06-19T11:44:07;6.03;;;4.07;;
78581;SDS011;67878;46.242;5.974;2023-06-19T11:46:34;5.53;;;4.03;;
78581;SDS011;67878;46.242;5.974;2023-06-19T11:49:18;4.68;;;4.28;;
78581;SDS011;67878;46.242;5.974;2023-06-19T11:51:43;5.32;;;4.82;;
78581;SDS011;67878;46.242;5.974;2023-06-19T11:54:10;5.05;;;4.55;;
78581;SDS011;67878;46.242;5.974;2023-06-19T11:56:36;5.13;;;4.30;;
78581;SDS011;67878;46.242;5.974;2023-06-19T11:59:02;4.82;;;4.43;;
78581;SDS011;67878;46.242;5.974;2023-06-19T12:01:34;4.82;;;4.30;;
78581;SDS011;67878;46.242;5.974;2023-06-19T12:04:00;5.53;;;4.25;;
78581;SDS011;67878;46.242;5.974;2023-06-19T12:06:27;5.05;;;4.50;;
78581;SDS011;67878;46.242;5.974;2023-06-19T12:08:53;4.68;;;3.95;;
78581;SDS011;67878;46.242;5.974;2023-06-19T12:11:18;4.97;;;4.50;;
78581;SDS011;67878;46.242;5.974;2023-06-19T12:13:44;5.07;;;4.20;;
78581;SDS011;67878;46.242;5.974;2023-06-19T12:16:09;4.55;;;4.15;;
78581;SDS011;67878;46.242;5.974;2023-06-19T12:18:35;4.68;;;4.22;;
78581;SDS011;67878;46.242;5.974;2023-06-19T12:21:01;5.32;;;4.00;;
78581;SDS011;67878;46.242;5.974;2023-06-19T12:23:26;5.28;;;4.60;;
78581;SDS011;67878;46.242;5.974;2023-06-19T12:25:52;5.50;;;4.25;;
78581;SDS011;67878;46.242;5.974;2023-06-19T12:28:17;5.60;;;4.20;;
78581;SDS011;67878;46.242;5.974;2023-06-19T12:30:50;5.32;;;4.15;;
78581;SDS011;67878;46.242;5.974;2023-06-19T12:33:19;4.45;;;3.90;;
78581;SDS011;67878;46.242;5.974;2023-06-19T12:35:46;4.75;;;3.70;;
78581;SDS011;67878;46.242;5.974;2023-06-19T12:38:13;7.15;;;3.92;;
78581;SDS011;67878;46.242;5.974;2023-06-19T12:40:42;3.92;;;3.55;;
78581;SDS011;67878;46.242;5.974;2023-06-19T12:43:08;4.43;;;4.03;;
78581;SDS011;67878;46.242;5.974;2023-06-19T12:45:35;4.07;;;3.72;;
78581;SDS011;67878;46.242;5.974;2023-06-19T12:48:03;4.45;;;4.05;;
78581;SDS011;67878;46.242;5.974;2023-06-19T12:50:29;4.13;;;3.65;;
78581;SDS011;67878;46.242;5.974;2023-06-19T12:52:55;4.47;;;4.07;;
78581;SDS011;67878;46.242;5.974;2023-06-19T12:55:20;4.60;;;3.97;;
78581;SDS011;67878;46.242;5.974;2023-06-19T12:57:45;4.35;;;3.95;;
78581;SDS011;67878;46.242;5.974;2023-06-19T13:00:11;4.20;;;3.80;;
78581;SDS011;67878;46.242;5.974;2023-06-19T13:02:38;4.50;;;4.10;;
78581;SDS011;67878;46.242;5.974;2023-06-19T13:05:04;4.32;;;3.92;;
78581;SDS011;67878;46.242;5.974;2023-06-19T13:07:31;4.70;;;4.30;;
78581;SDS011;67878;46.242;5.974;2023-06-19T13:09:56;5.15;;;3.95;;
78581;SDS011;67878;46.242;5.974;2023-06-19T13:12:21;5.97;;;4.22;;
78581;SDS011;67878;46.242;5.974;2023-06-19T13:14:47;4.35;;;3.95;;
78581;SDS011;67878;46.242;5.974;2023-06-19T13:17:12;5.05;;;3.83;;
78581;SDS011;67878;46.242;5.974;2023-06-19T13:19:39;4.53;;;4.13;;
78581;SDS011;67878;46.242;5.974;2023-06-19T13:22:04;4.45;;;4.05;;
78581;SDS011;67878;46.242;5.974;2023-06-19T13:24:30;4.55;;;3.63;;
78581;SDS011;67878;46.242;5.974;2023-06-19T13:26:55;4.35;;;3.95;;
78581;SDS011;67878;46.242;5.974;2023-06-19T13:29:20;4.47;;;4.07;;
78581;SDS011;67878;46.242;5.974;2023-06-19T13:31:46;4.60;;;3.78;;
78581;SDS011;67878;46.242;5.974;2023-06-19T13:34:11;4.57;;;3.95;;
78581;SDS011;67878;46.242;5.974;2023-06-19T13:36:37;4.47;;;3.88;;
78581;SDS011;67878;46.242;5.974;2023-06-19T13:39:03;4.68;;;3.72;;
78581;SDS011;67878;46.242;5.974;2023-06-19T13:41:32;5.05;;;4.13;;
78581;SDS011;67878;46.242;5.974;2023-06-19T13:43:59;4.40;;;4.00;;
78581;SDS011;67878;46.242;5.974;2023-06-19T13:46:25;4.85;;;4.38;;
78581;SDS011;67878;46.242;5.974;2023-06-19T13:48:51;4.25;;;3.75;;
78581;SDS011;67878;46.242;5.974;2023-06-19T13:51:17;4.65;;;4.25;;
78581;SDS011;67878;46.242;5.974;2023-06-19T13:53:43;4.10;;;3.67;;
78581;SDS011;67878;46.242;5.974;2023-06-19T13:56:09;4.53;;;3.75;;
78581;SDS011;67878;46.242;5.974;2023-06-19T13:58:35;4.78;;;4.25;;
78581;SDS011;67878;46.242;5.974;2023-06-19T14:01:00;4.82;;;4.43;;
78581;SDS011;67878;46.242;5.974;2023-06-19T14:03:25;4.13;;;3.72;;
78581;SDS011;67878;46.242;5.974;2023-06-19T14:05:51;4.55;;;3.60;;
78581;SDS011;67878;46.242;5.974;2023-06-19T14:08:16;4.35;;;3.65;;
78581;SDS011;67878;46.242;5.974;2023-06-19T14:10:42;5.18;;;4.68;;
78581;SDS011;67878;46.242;5.974;2023-06-19T14:13:08;4.80;;;4.40;;
78581;SDS011;67878;46.242;5.974;2023-06-19T14:15:34;4.90;;;4.40;;
78581;SDS011;67878;46.242;5.974;2023-06-19T14:17:59;5.68;;;5.05;;
78581;SDS011;67878;46.242;5.974;2023-06-19T14:20:25;5.10;;;4.70;;
78581;SDS011;67878;46.242;5.974;2023-06-19T14:22:50;4.93;;;4.45;;
78581;SDS011;67878;46.242;5.974;2023-06-19T14:25:15;4.97;;;4.50;;
78581;SDS011;67878;46.242;5.974;2023-06-19T14:27:41;6.43;;;4.95;;
78581;SDS011;67878;46.242;5.974;2023-06-19T14:30:06;6.28;;;4.80;;
78581;SDS011;67878;46.242;5.974;2023-06-19T14:32:33;5.32;;;4.82;;
78581;SDS011;67878;46.242;5.974;2023-06-19T14:35:00;5.57;;;5.03;;
78581;SDS011;67878;46.242;5.974;2023-06-19T14:37:25;5.30;;;4.80;;
78581;SDS011;67878;46.242;5.974;2023-06-19T14:39:51;5.53;;;5.03;;
78581;SDS011;67878;46.242;5.974;2023-06-19T14:42:16;5.50;;;5.00;;
78581;SDS011;67878;46.242;5.974;2023-06-19T14:44:42;5.28;;;4.78;;
78581;SDS011;67878;46.242;5.974;2023-06-19T14:47:07;6.32;;;5.70;;
78581;SDS011;67878;46.242;5.974;2023-06-19T14:49:33;5.80;;;5.25;;
78581;SDS011;67878;46.242;5.974;2023-06-19T14:51:59;6.25;;;5.10;;
78581;SDS011;67878;46.242;5.974;2023-06-19T14:54:26;6.22;;;5.63;;
78581;SDS011;67878;46.242;5.974;2023-06-19T14:56:52;5.90;;;5.40;;